Time;durP1;ratioP1;P1;durP2;ratioP2;P2;SDS_P1;SDS_P2;PMS_P1;PMS_P2;Temp;Humidity;BMP_temperature;BMP_pressure;BME280_temperature;BME280_humidity;BME280_pressure;Samples;Min_cycle;Max_cycle;Signal;HPM_P1;HPM_P2
2023/10/24 00:02:21;;;;;;;35.47;15.25;;;10.40;99.90;;;;;;5077292;28;20235;-55
2023/10/24 00:04:48;;;;;;;35.65;16.15;;;10.40;99.90;;;;;;5076904;28;20120;-58
2023/10/24 00:07:15;;;;;;;35.85;16.75;;;10.40;99.90;;;;;;5076924;28;20044;-59
2023/10/24 00:09:42;;;;;;;31.25;15.18;;;10.40;99.90;;;;;;5076816;28;20047;-57
2023/10/24 00:12:09;;;;;;;30.65;15.65;;;10.40;99.90;;;;;;5077226;28;20036;-60
2023/10/24 00:14:36;;;;;;;32.70;15.20;;;10.40;99.90;;;;;;5076874;28;20072;-56
2023/10/24 00:17:03;;;;;;;30.42;15.45;;;10.30;99.90;;;;;;5076853;28;20036;-56
2023/10/24 00:19:30;;;;;;;29.38;14.70;;;10.30;99.90;;;;;;5076652;28;20053;-56
2023/10/24 00:21:57;;;;;;;27.58;13.40;;;10.30;99.90;;;;;;5076906;28;20086;-61
2023/10/24 00:24:25;;;;;;;29.63;13.23;;;10.20;99.90;;;;;;5077039;28;20040;-60
2023/10/24 00:26:52;;;;;;;26.30;13.77;;;10.20;99.90;;;;;;5076897;28;20075;-58
2023/10/24 00:29:19;;;;;;;26.75;12.80;;;10.20;99.90;;;;;;5075553;28;20032;-56
2023/10/24 00:31:46;;;;;;;20.80;13.40;;;10.20;99.90;;;;;;5076616;28;20044;-59
2023/10/24 00:34:13;;;;;;;25.58;13.50;;;10.20;99.90;;;;;;5076898;28;20371;-56
2023/10/24 00:36:41;;;;;;;24.50;12.90;;;10.20;99.90;;;;;;5076683;28;20044;-56
2023/10/24 00:39:08;;;;;;;24.73;12.80;;;10.10;99.90;;;;;;5075428;28;20087;-58
2023/10/24 00:41:35;;;;;;;20.95;12.07;;;10.10;99.90;;;;;;5076579;28;20041;-53
2023/10/24 00:44:02;;;;;;;22.15;12.20;;;10.00;99.90;;;;;;5076644;28;20068;-54
2023/10/24 00:46:29;;;;;;;24.27;11.82;;;10.00;99.90;;;;;;5076380;28;20045;-56
2023/10/24 00:48:56;;;;;;;22.88;12.38;;;10.00;99.90;;;;;;5076673;28;20063;-60
2023/10/24 00:51:22;;;;;;;19.67;10.45;;;10.00;99.90;;;;;;5075164;28;20052;-57
2023/10/24 00:53:49;;;;;;;20.52;10.38;;;10.00;99.90;;;;;;5076488;28;20032;-59
2023/10/24 00:56:16;;;;;;;17.92;9.05;;;10.00;99.90;;;;;;5075864;28;20504;-57
2023/10/24 00:58:43;;;;;;;15.75;9.57;;;10.00;99.90;;;;;;5076109;28;20471;-57
2023/10/24 01:01:10;;;;;;;15.38;9.00;;;10.00;99.90;;;;;;5076435;28;20044;-55
2023/10/24 01:03:37;;;;;;;19.38;9.90;;;9.90;99.90;;;;;;5076203;28;20115;-55
2023/10/24 01:06:04;;;;;;;16.27;9.23;;;9.90;99.90;;;;;;5075079;28;20050;-51
2023/10/24 01:08:31;;;;;;;17.48;9.38;;;9.90;99.90;;;;;;5075760;28;20458;-51
2023/10/24 01:10:58;;;;;;;15.95;8.95;;;9.90;99.90;;;;;;5075777;28;20047;-56
2023/10/24 01:13:25;;;;;;;17.48;9.05;;;9.90;99.90;;;;;;5074687;28;20033;-52
2023/10/24 01:15:52;;;;;;;17.23;8.60;;;9.90;99.90;;;;;;5076169;28;20483;-51
2023/10/24 01:18:19;;;;;;;19.15;9.27;;;9.90;99.90;;;;;;5074376;28;20079;-56
2023/10/24 01:20:46;;;;;;;24.08;8.57;;;10.00;99.90;;;;;;5075574;28;20475;-54
2023/10/24 01:23:13;;;;;;;13.30;8.25;;;9.90;99.90;;;;;;5074232;28;20487;-57
2023/10/24 01:25:39;;;;;;;12.50;7.85;;;9.90;99.90;;;;;;5075506;28;20406;-53
2023/10/24 01:28:06;;;;;;;14.43;7.38;;;9.90;99.90;;;;;;5075574;28;20045;-60
2023/10/24 01:30:33;;;;;;;12.55;7.75;;;9.90;99.90;;;;;;5074479;28;20067;-53
2023/10/24 01:33:00;;;;;;;12.50;7.20;;;9.90;99.90;;;;;;5075332;28;20091;-56
2023/10/24 01:35:26;;;;;;;11.35;6.90;;;9.90;99.90;;;;;;5075466;28;20036;-57
2023/10/24 01:37:53;;;;;;;12.95;6.75;;;10.00;99.90;;;;;;5075446;28;20041;-59
2023/10/24 01:40:20;;;;;;;11.85;6.70;;;10.00;99.90;;;;;;5075321;28;20047;-59
2023/10/24 01:42:47;;;;;;;12.23;6.63;;;10.00;99.90;;;;;;5075320;28;20071;-56
2023/10/24 01:45:15;;;;;;;10.57;6.60;;;10.00;99.90;;;;;;5074326;28;20044;-54
2023/10/24 01:47:42;;;;;;;12.05;6.70;;;10.00;99.90;;;;;;5075421;28;20094;-59
2023/10/24 01:50:09;;;;;;;12.27;6.47;;;10.00;99.90;;;;;;5073668;28;20139;-58
2023/10/24 01:52:36;;;;;;;13.07;6.32;;;10.00;99.90;;;;;;5075315;28;20391;-52
2023/10/24 01:55:03;;;;;;;9.50;5.80;;;10.10;99.90;;;;;;5075262;28;20032;-57
2023/10/24 01:57:29;;;;;;;10.48;6.10;;;10.10;99.90;;;;;;5075335;28;20059;-56
2023/10/24 01:59:56;;;;;;;8.88;6.10;;;10.10;99.90;;;;;;5073975;28;20067;-56
2023/10/24 02:02:23;;;;;;;11.30;6.43;;;10.10;99.90;;;;;;5073411;28;20403;-59
2023/10/24 02:04:50;;;;;;;10.98;6.18;;;10.10;99.90;;;;;;5074602;28;20055;-58
2023/10/24 02:07:19;;;;;;;13.05;6.45;;;10.20;99.90;;;;;;5073892;28;20049;-57
2023/10/24 02:09:46;;;;;;;11.85;6.07;;;10.20;99.90;;;;;;5074236;28;20507;-59
2023/10/24 02:12:13;;;;;;;12.65;6.45;;;10.20;99.90;;;;;;5074461;28;20487;-57
2023/10/24 02:14:40;;;;;;;12.98;6.10;;;10.20;99.90;;;;;;5074560;28;20540;-57
2023/10/24 02:17:07;;;;;;;14.90;6.30;;;10.20;99.90;;;;;;5073233;28;20048;-61
2023/10/24 02:19:34;;;;;;;12.75;6.13;;;10.30;99.90;;;;;;5074418;28;20036;-58
2023/10/24 02:22:01;;;;;;;11.60;5.78;;;10.30;99.90;;;;;;5074209;28;20040;-58
2023/10/24 02:24:28;;;;;;;10.27;5.50;;;10.30;99.90;;;;;;5074041;28;20120;-56
2023/10/24 02:26:54;;;;;;;11.32;5.43;;;10.30;99.90;;;;;;5074396;28;20044;-56
2023/10/24 02:29:23;;;;;;;12.70;5.38;;;10.30;99.90;;;;;;5072750;28;20422;-59
2023/10/24 02:31:50;;;;;;;10.85;6.00;;;10.30;99.90;;;;;;5073838;28;20075;-54
2023/10/24 02:34:17;;;;;;;10.50;6.28;;;10.30;99.90;;;;;;5073932;28;20051;-58
2023/10/24 02:36:44;;;;;;;13.98;5.95;;;10.30;99.90;;;;;;5073985;28;20040;-55
2023/10/24 02:39:11;;;;;;;20.65;6.90;;;10.30;99.90;;;;;;5073935;28;20399;-59
2023/10/24 02:41:38;;;;;;;14.93;6.32;;;10.30;99.90;;;;;;5074118;28;20049;-56
2023/10/24 02:44:05;;;;;;;11.98;7.43;;;10.30;99.90;;;;;;5072793;28;20048;-59
2023/10/24 02:46:32;;;;;;;16.60;7.78;;;10.30;99.90;;;;;;5072473;28;20050;-57
2023/10/24 02:48:59;;;;;;;17.40;8.45;;;10.30;99.90;;;;;;5072375;28;20506;-57
2023/10/24 02:51:25;;;;;;;15.60;8.50;;;10.40;99.90;;;;;;5073738;28;20062;-58
2023/10/24 02:53:52;;;;;;;15.35;7.97;;;10.40;99.90;;;;;;5073822;28;20289;-58
2023/10/24 02:56:19;;;;;;;18.63;8.98;;;10.40;99.90;;;;;;5074020;28;20545;-58
2023/10/24 02:58:46;;;;;;;15.65;9.05;;;10.40;99.90;;;;;;5074109;28;20375;-57
2023/10/24 03:01:13;;;;;;;20.88;10.85;;;10.40;99.90;;;;;;5074046;28;20051;-58
2023/10/24 03:03:40;;;;;;;20.17;9.63;;;10.40;99.90;;;;;;5072789;28;20052;-60
2023/10/24 03:06:06;;;;;;;15.73;9.68;;;10.40;99.90;;;;;;5073938;28;20098;-57
2023/10/24 03:08:33;;;;;;;17.23;9.70;;;10.50;99.90;;;;;;5072574;28;20545;-57
2023/10/24 03:11:00;;;;;;;18.75;9.75;;;10.50;99.90;;;;;;5072460;28;20045;-57
2023/10/24 03:13:27;;;;;;;19.30;10.35;;;10.40;99.90;;;;;;5073991;28;20097;-57
2023/10/24 03:15:54;;;;;;;20.23;10.43;;;10.40;99.90;;;;;;5073397;28;20041;-56
2023/10/24 03:18:21;;;;;;;18.02;9.90;;;10.50;99.90;;;;;;5074078;28;20041;-58
2023/10/24 03:20:48;;;;;;;13.98;10.77;;;10.50;99.90;;;;;;5073820;28;20044;-58
2023/10/24 03:23:15;;;;;;;16.42;10.63;;;10.40;99.90;;;;;;5073763;28;20114;-58
2023/10/24 03:25:42;;;;;;;16.80;9.88;;;10.40;99.90;;;;;;5072142;28;20434;-59
2023/10/24 03:28:10;;;;;;;18.58;10.25;;;10.40;99.90;;;;;;5073941;28;20365;-57
2023/10/24 03:30:37;;;;;;;17.15;9.93;;;10.40;99.90;;;;;;5073589;28;20043;-57
2023/10/24 03:33:04;;;;;;;17.17;10.00;;;10.40;99.90;;;;;;5072091;28;20052;-57
2023/10/24 03:35:30;;;;;;;15.20;9.98;;;10.40;99.90;;;;;;5073661;28;20032;-56
2023/10/24 03:37:57;;;;;;;17.80;10.65;;;10.50;99.90;;;;;;5073403;28;20048;-58
2023/10/24 03:40:26;;;;;;;17.00;10.70;;;10.40;99.90;;;;;;5073633;28;20052;-57
2023/10/24 03:42:53;;;;;;;15.50;10.98;;;10.40;99.90;;;;;;5073637;28;20136;-57
2023/10/24 03:45:20;;;;;;;16.15;11.57;;;10.40;99.90;;;;;;5073683;28;20578;-56
2023/10/24 03:47:48;;;;;;;17.83;11.82;;;10.40;99.90;;;;;;5073485;28;20044;-57
2023/10/24 03:50:15;;;;;;;21.33;12.68;;;10.50;99.90;;;;;;5073059;28;20036;-56
2023/10/24 03:52:42;;;;;;;21.60;13.35;;;10.40;99.90;;;;;;5073685;28;20044;-59
2023/10/24 03:55:09;;;;;;;20.73;13.60;;;10.50;99.90;;;;;;5072365;28;20150;-57
2023/10/24 03:57:36;;;;;;;19.17;14.25;;;10.50;99.90;;;;;;5073314;28;20479;-60
2023/10/24 04:00:07;;;;;;;21.33;14.80;;;10.50;99.90;;;;;;5072815;28;20061;-56
2023/10/24 04:02:37;;;;;;;20.92;15.25;;;10.50;99.90;;;;;;5073150;28;20083;-57
2023/10/24 04:05:06;;;;;;;21.48;15.30;;;10.50;99.90;;;;;;5073516;28;20041;-56
2023/10/24 04:07:33;;;;;;;25.40;16.88;;;10.50;99.90;;;;;;5071736;28;20052;-56
2023/10/24 04:10:00;;;;;;;23.02;16.17;;;10.50;99.90;;;;;;5073375;28;20036;-59
2023/10/24 04:12:27;;;;;;;27.17;15.75;;;10.50;99.90;;;;;;5073376;28;20047;-59
2023/10/24 04:14:54;;;;;;;24.40;16.45;;;10.50;99.90;;;;;;5072734;28;20044;-56
2023/10/24 04:17:20;;;;;;;23.10;16.88;;;10.50;99.90;;;;;;5072073;28;20045;-59
2023/10/24 04:19:47;;;;;;;23.90;16.13;;;10.50;99.90;;;;;;5073302;28;20483;-58
2023/10/24 04:22:14;;;;;;;22.10;15.20;;;10.50;99.90;;;;;;5073077;28;20127;-58
2023/10/24 04:24:41;;;;;;;24.23;14.48;;;10.50;99.90;;;;;;5073203;28;20056;-56
2023/10/24 04:27:08;;;;;;;22.67;14.85;;;10.50;99.90;;;;;;5073605;28;20479;-59
2023/10/24 04:29:35;;;;;;;21.88;14.65;;;10.50;99.90;;;;;;5072860;28;20121;-55
2023/10/24 04:32:02;;;;;;;22.27;14.85;;;10.50;99.90;;;;;;5075214;28;20040;-60
2023/10/24 04:34:29;;;;;;;18.90;13.68;;;10.50;99.90;;;;;;5076485;28;20472;-55
2023/10/24 04:36:57;;;;;;;23.20;14.48;;;10.50;99.90;;;;;;5076362;28;20098;-55
2023/10/24 04:39:24;;;;;;;20.10;13.32;;;10.50;99.90;;;;;;5076603;28;20052;-56
2023/10/24 04:41:51;;;;;;;21.67;14.38;;;10.60;99.90;;;;;;5074865;28;20051;-60
2023/10/24 04:44:17;;;;;;;20.27;15.52;;;10.50;99.90;;;;;;5076142;28;20040;-56
2023/10/24 04:46:44;;;;;;;21.38;14.68;;;10.50;99.90;;;;;;5076447;28;20490;-60
2023/10/24 04:49:11;;;;;;;22.08;14.73;;;10.50;99.90;;;;;;5076279;28;20083;-54
2023/10/24 04:51:38;;;;;;;21.67;14.02;;;10.50;99.90;;;;;;5076299;28;20044;-58
2023/10/24 04:54:05;;;;;;;21.80;14.68;;;10.50;99.90;;;;;;5076301;28;20068;-56
2023/10/24 04:56:31;;;;;;;20.13;13.73;;;10.50;99.90;;;;;;5076082;28;20041;-57
2023/10/24 04:58:58;;;;;;;17.95;13.07;;;10.50;99.90;;;;;;5074801;28;20044;-57
2023/10/24 05:01:25;;;;;;;21.63;13.45;;;10.50;99.90;;;;;;5075994;28;20041;-58
2023/10/24 05:03:52;;;;;;;19.88;13.30;;;10.50;99.90;;;;;;5075858;28;20044;-58
2023/10/24 05:06:19;;;;;;;19.83;13.50;;;10.50;99.90;;;;;;5076030;28;20036;-58
2023/10/24 05:08:46;;;;;;;18.20;13.00;;;10.50;99.90;;;;;;5076043;28;20047;-56
2023/10/24 05:11:12;;;;;;;20.02;12.63;;;10.50;99.90;;;;;;5076338;28;20044;-59
2023/10/24 05:13:39;;;;;;;17.95;12.50;;;10.50;99.90;;;;;;5075937;28;20041;-56
2023/10/24 05:16:06;;;;;;;17.10;12.02;;;10.50;99.90;;;;;;5076133;28;20040;-56
2023/10/24 05:18:33;;;;;;;17.48;12.77;;;10.60;99.90;;;;;;5075608;28;20039;-58
2023/10/24 05:21:00;;;;;;;14.98;11.77;;;10.60;99.90;;;;;;5075802;28;20387;-58
2023/10/24 05:23:27;;;;;;;16.90;12.43;;;10.50;99.90;;;;;;5076070;28;20392;-59
2023/10/24 05:25:53;;;;;;;15.73;11.50;;;10.50;99.90;;;;;;5075810;28;20056;-57
2023/10/24 05:28:20;;;;;;;14.82;10.90;;;10.50;99.90;;;;;;5075943;28;20080;-58
2023/10/24 05:30:47;;;;;;;15.68;11.57;;;10.50;99.90;;;;;;5075293;28;20037;-56
2023/10/24 05:33:14;;;;;;;13.60;11.02;;;10.50;99.90;;;;;;5075550;28;20048;-58
2023/10/24 05:35:40;;;;;;;15.90;11.95;;;10.40;99.90;;;;;;5075451;28;20123;-60
2023/10/24 05:38:08;;;;;;;14.35;11.38;;;10.40;99.90;;;;;;5074855;28;20116;-57
2023/10/24 05:40:35;;;;;;;16.60;11.05;;;10.50;99.90;;;;;;5075494;28;20195;-56
2023/10/24 05:43:02;;;;;;;18.13;11.77;;;10.50;99.90;;;;;;5075294;28;20043;-57
2023/10/24 05:45:29;;;;;;;17.55;12.00;;;10.40;99.90;;;;;;5075413;28;20036;-56
2023/10/24 05:47:56;;;;;;;15.57;11.48;;;10.30;99.90;;;;;;5075770;28;20166;-58
2023/10/24 05:50:24;;;;;;;16.30;11.40;;;10.30;99.90;;;;;;5075423;28;20071;-58
2023/10/24 05:52:50;;;;;;;19.88;11.88;;;10.30;99.90;;;;;;5075429;28;20041;-55
2023/10/24 05:55:17;;;;;;;13.65;10.98;;;10.30;99.90;;;;;;5075242;28;20083;-59
2023/10/24 05:57:44;;;;;;;16.35;12.25;;;10.30;99.90;;;;;;5075503;28;20040;-58
2023/10/24 06:00:11;;;;;;;16.17;11.90;;;10.30;99.90;;;;;;5075180;28;20399;-60
2023/10/24 06:02:38;;;;;;;14.57;10.80;;;10.30;99.90;;;;;;5075350;28;20067;-60
2023/10/24 06:05:05;;;;;;;15.82;11.02;;;10.30;99.90;;;;;;5074997;28;20045;-58
2023/10/24 06:07:31;;;;;;;16.90;11.63;;;10.30;99.90;;;;;;5074916;28;20078;-56
2023/10/24 06:09:58;;;;;;;15.68;10.95;;;10.30;99.90;;;;;;5073493;28;20119;-56
2023/10/24 06:12:25;;;;;;;14.90;11.18;;;10.20;99.90;;;;;;5075032;28;20040;-57
2023/10/24 06:14:52;;;;;;;13.57;11.40;;;10.20;99.90;;;;;;5074878;28;20045;-53
2023/10/24 06:17:19;;;;;;;13.18;11.18;;;10.20;99.90;;;;;;5073839;28;20098;-57
2023/10/24 06:19:48;;;;;;;12.40;10.52;;;10.20;99.90;;;;;;5074350;28;20036;-57
2023/10/24 06:22:16;;;;;;;14.52;9.60;;;10.20;99.90;;;;;;5074586;28;20131;-58
2023/10/24 06:24:43;;;;;;;12.43;10.52;;;10.20;99.90;;;;;;5074762;28;20047;-58
2023/10/24 06:27:11;;;;;;;16.23;11.65;;;10.30;99.90;;;;;;5074160;28;20040;-58
2023/10/24 06:29:38;;;;;;;12.95;11.18;;;10.30;99.90;;;;;;5074092;28;20044;-59
2023/10/24 06:32:06;;;;;;;13.45;10.73;;;10.30;99.90;;;;;;5073928;28;20518;-54
2023/10/24 06:34:33;;;;;;;12.95;10.43;;;10.30;99.90;;;;;;5074023;28;20044;-59
2023/10/24 06:37:00;;;;;;;14.25;10.75;;;10.30;99.90;;;;;;5074272;28;20487;-56
2023/10/24 06:39:27;;;;;;;13.45;11.43;;;10.30;99.90;;;;;;5072610;28;20576;-60
2023/10/24 06:41:56;;;;;;;13.63;10.75;;;10.30;99.90;;;;;;5074264;28;20067;-56
2023/10/24 06:44:24;;;;;;;14.00;10.23;;;10.20;99.90;;;;;;5056356;28;20045;-59
2023/10/24 06:46:51;;;;;;;13.48;10.55;;;10.30;99.90;;;;;;5074292;28;20051;-59
2023/10/24 06:49:18;;;;;;;14.80;9.57;;;10.30;99.90;;;;;;5072677;28;20173;-59
2023/10/24 06:51:45;;;;;;;12.13;9.93;;;10.30;99.90;;;;;;5074151;28;20116;-59
2023/10/24 06:54:12;;;;;;;11.70;9.73;;;10.30;99.90;;;;;;5073761;28;20047;-57
2023/10/24 06:56:38;;;;;;;11.00;9.52;;;10.30;99.90;;;;;;5074461;28;20036;-59
2023/10/24 06:59:05;;;;;;;13.43;10.90;;;10.30;99.90;;;;;;5074076;28;20044;-59
2023/10/24 07:01:32;;;;;;;12.50;10.43;;;10.30;99.90;;;;;;5074134;28;20044;-57
2023/10/24 07:04:00;;;;;;;10.70;9.60;;;10.30;99.90;;;;;;5074301;28;20117;-60
2023/10/24 07:06:27;;;;;;;13.57;10.25;;;10.30;99.90;;;;;;5073914;28;20059;-56
2023/10/24 07:08:54;;;;;;;13.43;10.68;;;10.30;99.90;;;;;;5073043;28;20040;-59
2023/10/24 07:11:21;;;;;;;12.38;10.35;;;10.30;99.90;;;;;;5074121;28;20479;-58
2023/10/24 07:13:48;;;;;;;14.18;11.35;;;10.30;99.90;;;;;;5072648;28;20383;-55
2023/10/24 07:16:15;;;;;;;15.50;11.45;;;10.20;99.90;;;;;;5073902;28;20489;-57
2023/10/24 07:18:41;;;;;;;12.65;11.00;;;10.20;99.90;;;;;;5073674;28;20040;-58
2023/10/24 07:21:08;;;;;;;13.45;11.60;;;10.20;99.90;;;;;;5073665;28;20110;-55
2023/10/24 07:23:35;;;;;;;16.20;11.23;;;10.30;99.90;;;;;;5072290;28;20364;-54
2023/10/24 07:26:03;;;;;;;14.35;11.90;;;10.30;99.90;;;;;;5073776;28;20048;-59
2023/10/24 07:28:29;;;;;;;14.93;11.27;;;10.30;99.90;;;;;;5074020;28;20574;-58
2023/10/24 07:30:56;;;;;;;14.40;11.70;;;10.30;99.90;;;;;;5072241;28;20064;-58
2023/10/24 07:33:23;;;;;;;14.30;11.13;;;10.30;99.90;;;;;;5071870;28;20076;-56
2023/10/24 07:35:50;;;;;;;14.10;11.43;;;10.40;99.90;;;;;;5073398;28;20045;-56
2023/10/24 07:38:17;;;;;;;14.68;11.80;;;10.30;99.90;;;;;;5073458;28;20048;-58
2023/10/24 07:40:44;;;;;;;16.25;11.68;;;10.40;99.90;;;;;;5073315;28;20080;-59
2023/10/24 07:43:11;;;;;;;13.93;11.30;;;10.40;99.90;;;;;;5072582;28;20098;-57
2023/10/24 07:45:38;;;;;;;13.07;11.65;;;10.40;99.90;;;;;;5072318;28;20410;-56
2023/10/24 07:48:05;;;;;;;16.60;11.95;;;10.40;99.90;;;;;;5073665;28;20502;-57
2023/10/24 07:50:33;;;;;;;14.02;10.68;;;10.50;99.90;;;;;;5073530;28;20044;-60
2023/10/24 07:52:59;;;;;;;16.63;12.38;;;10.40;99.90;;;;;;5073376;28;20364;-55
2023/10/24 07:55:27;;;;;;;13.23;11.30;;;10.50;99.90;;;;;;5073282;28;20391;-57
2023/10/24 07:57:54;;;;;;;14.75;11.88;;;10.50;99.90;;;;;;5072014;28;20082;-53
2023/10/24 08:00:21;;;;;;;14.57;11.40;;;10.50;99.90;;;;;;5073574;28;20059;-59
2023/10/24 08:02:47;;;;;;;12.50;11.20;;;10.60;99.90;;;;;;5073420;28;20048;-58
2023/10/24 08:05:15;;;;;;;13.70;11.52;;;10.60;99.90;;;;;;5073623;28;20036;-59
2023/10/24 08:07:41;;;;;;;12.80;10.40;;;10.70;99.90;;;;;;5076907;28;20032;-56
2023/10/24 08:10:08;;;;;;;12.00;9.98;;;10.80;99.90;;;;;;5077366;28;20371;-57
2023/10/24 08:12:35;;;;;;;15.02;10.23;;;10.80;99.90;;;;;;5077235;28;20036;-59
2023/10/24 08:15:03;;;;;;;14.10;10.10;;;10.90;99.90;;;;;;5077118;28;20131;-60
2023/10/24 08:17:30;;;;;;;13.52;9.48;;;10.90;99.90;;;;;;5077169;28;20100;-59
2023/10/24 08:19:58;;;;;;;12.73;10.32;;;11.00;99.90;;;;;;5077129;28;20041;-58
2023/10/24 08:22:25;;;;;;;12.30;8.98;;;11.00;99.90;;;;;;5076840;28;20049;-54
2023/10/24 08:24:51;;;;;;;11.13;9.93;;;11.10;99.90;;;;;;5077231;28;20430;-57
2023/10/24 08:27:18;;;;;;;12.93;10.00;;;11.10;99.90;;;;;;5076989;28;20045;-58
2023/10/24 08:29:45;;;;;;;12.23;9.57;;;11.10;99.90;;;;;;5076902;28;20479;-55
2023/10/24 08:32:12;;;;;;;13.57;10.88;;;11.20;99.90;;;;;;5076941;28;20052;-58
2023/10/24 08:34:41;;;;;;;12.77;9.50;;;11.10;99.90;;;;;;5076597;28;20096;-57
2023/10/24 08:37:08;;;;;;;12.80;9.70;;;11.20;99.90;;;;;;5076546;28;20032;-57
2023/10/24 08:39:35;;;;;;;11.80;9.02;;;11.20;99.90;;;;;;5076616;28;20036;-59
2023/10/24 08:42:02;;;;;;;10.95;9.38;;;11.20;99.90;;;;;;5076858;28;20044;-59
2023/10/24 08:44:29;;;;;;;13.55;8.88;;;11.20;99.90;;;;;;5083472;28;20211;-56
2023/10/24 08:46:56;;;;;;;10.65;8.80;;;11.30;99.90;;;;;;5075873;28;20388;-56
2023/10/24 08:49:23;;;;;;;10.85;8.80;;;11.30;99.90;;;;;;5075634;28;20132;-60
2023/10/24 08:51:50;;;;;;;11.88;8.85;;;11.40;99.90;;;;;;5075464;28;20044;-57
2023/10/24 08:54:17;;;;;;;10.38;9.27;;;11.50;99.90;;;;;;5075746;28;20044;-59
2023/10/24 08:56:44;;;;;;;10.40;8.23;;;11.50;99.90;;;;;;5075859;28;20391;-58
2023/10/24 08:59:10;;;;;;;10.95;8.18;;;11.60;99.90;;;;;;5075803;28;20067;-57
2023/10/24 09:01:38;;;;;;;9.90;7.80;;;11.60;99.90;;;;;;5075625;28;20055;-56
2023/10/24 09:04:05;;;;;;;8.00;7.20;;;11.60;99.90;;;;;;5075666;28;20044;-57
2023/10/24 09:06:32;;;;;;;10.38;7.07;;;11.70;99.90;;;;;;5075805;28;20044;-58
2023/10/24 09:08:58;;;;;;;10.20;7.35;;;11.70;99.90;;;;;;5075678;28;20040;-59
2023/10/24 09:11:25;;;;;;;8.27;7.07;;;11.70;99.90;;;;;;5075474;28;20045;-61
2023/10/24 09:13:52;;;;;;;7.60;5.88;;;11.80;99.90;;;;;;5075460;28;20036;-57
2023/10/24 09:16:19;;;;;;;8.38;6.00;;;11.70;99.90;;;;;;5075511;28;20465;-56
2023/10/24 09:18:46;;;;;;;8.45;6.43;;;11.70;99.90;;;;;;5075126;28;20033;-58
2023/10/24 09:21:13;;;;;;;10.13;6.10;;;11.70;99.90;;;;;;5075707;28;20040;-58
2023/10/24 09:23:40;;;;;;;6.78;5.88;;;11.80;99.90;;;;;;5075352;28;20123;-55
2023/10/24 09:26:07;;;;;;;7.18;5.72;;;11.80;99.90;;;;;;5075327;28;20049;-59
2023/10/24 09:28:34;;;;;;;6.05;5.38;;;11.90;99.90;;;;;;5075395;28;20115;-55
2023/10/24 09:31:02;;;;;;;6.47;4.82;;;12.00;99.90;;;;;;5075495;28;20068;-56
2023/10/24 09:33:29;;;;;;;6.45;5.40;;;12.00;99.90;;;;;;5074957;28;20128;-60
2023/10/24 09:35:56;;;;;;;7.57;5.10;;;12.00;99.90;;;;;;5074099;28;20131;-57
2023/10/24 09:38:42;;;;;;;7.07;4.90;;;12.00;99.90;;;;;;5075094;28;20111;-59
2023/10/24 09:41:10;;;;;;;6.68;5.15;;;12.10;99.90;;;;;;5075034;28;20478;-56
2023/10/24 09:43:37;;;;;;;7.88;5.72;;;12.20;99.90;;;;;;5075073;28;20041;-57
2023/10/24 09:46:04;;;;;;;8.43;5.95;;;12.20;99.90;;;;;;5074710;28;20047;-57
2023/10/24 09:48:31;;;;;;;8.63;5.50;;;12.30;99.90;;;;;;5074927;28;20039;-58
2023/10/24 09:50:57;;;;;;;7.13;5.07;;;12.40;99.90;;;;;;5074675;28;20182;-60
2023/10/24 09:53:24;;;;;;;6.25;5.00;;;12.50;99.90;;;;;;5074824;28;20040;-58
2023/10/24 09:55:51;;;;;;;8.23;5.20;;;12.60;99.90;;;;;;5071580;28;20149;-57
2023/10/24 09:58:18;;;;;;;5.72;4.60;;;12.60;99.90;;;;;;5080513;28;20044;-56
2023/10/24 10:00:45;;;;;;;8.75;4.20;;;12.70;99.90;;;;;;5094919;28;20380;-56
2023/10/24 10:03:12;;;;;;;5.95;4.03;;;12.70;99.90;;;;;;5094506;28;20044;-57
2023/10/24 10:05:39;;;;;;;5.35;3.92;;;12.80;99.90;;;;;;5094494;28;20051;-59
2023/10/24 10:08:07;;;;;;;7.07;4.00;;;12.70;99.90;;;;;;5094599;28;20036;-57
2023/10/24 10:10:34;;;;;;;6.65;4.35;;;12.80;99.90;;;;;;5093216;28;20127;-57
2023/10/24 10:13:02;;;;;;;6.90;4.28;;;12.70;99.90;;;;;;5092720;28;20044;-60
2023/10/24 10:15:30;;;;;;;7.43;4.70;;;12.80;99.90;;;;;;5094956;28;20043;-58
2023/10/24 10:17:57;;;;;;;4.75;3.92;;;12.80;99.90;;;;;;5093037;28;20453;-57
2023/10/24 10:20:24;;;;;;;5.20;3.00;;;12.80;99.90;;;;;;5094406;28;20437;-61
2023/10/24 10:22:51;;;;;;;6.00;2.92;;;12.70;99.90;;;;;;5092867;28;20119;-61
2023/10/24 10:25:18;;;;;;;4.82;2.83;;;12.60;99.90;;;;;;5094578;28;20040;-56
2023/10/24 10:27:44;;;;;;;4.93;2.60;;;12.50;99.90;;;;;;5094356;28;20042;-57
2023/10/24 10:30:11;;;;;;;5.30;2.60;;;12.40;99.90;;;;;;5093463;28;20540;-56
2023/10/24 10:32:50;;;;;;;5.22;2.70;;;12.30;99.90;;;;;;5081934;28;20052;-57
2023/10/24 10:35:31;;;;;;;5.88;2.75;;;12.20;99.90;;;;;;5074072;28;20056;-59
2023/10/24 10:37:58;;;;;;;6.28;3.03;;;12.10;99.90;;;;;;5073848;28;20356;-58
2023/10/24 10:40:27;;;;;;;4.15;2.85;;;12.10;99.90;;;;;;5073798;28;20040;-55
2023/10/24 10:42:54;;;;;;;7.28;3.60;;;12.10;99.90;;;;;;5073634;28;20045;-58
2023/10/24 10:45:21;;;;;;;7.28;2.90;;;12.20;99.90;;;;;;5074313;28;20041;-60
2023/10/24 10:47:49;;;;;;;6.50;2.90;;;12.30;99.90;;;;;;5073224;28;20388;-57
2023/10/24 10:50:16;;;;;;;5.40;2.72;;;12.50;99.90;;;;;;5069166;28;20190;-60
2023/10/24 10:52:42;;;;;;;5.20;2.25;;;12.50;99.90;;;;;;5073566;28;20059;-58
2023/10/24 10:55:10;;;;;;;5.32;2.50;;;12.50;99.90;;;;;;5073461;28;20098;-60
2023/10/24 10:57:37;;;;;;;6.47;2.40;;;12.50;99.90;;;;;;5073511;28;20040;-59
2023/10/24 11:00:04;;;;;;;6.53;2.17;;;12.40;99.90;;;;;;5073315;28;20467;-58
2023/10/24 11:02:31;;;;;;;4.53;1.90;;;12.40;99.90;;;;;;5073551;28;20040;-57
2023/10/24 11:04:58;;;;;;;4.93;1.95;;;12.30;99.90;;;;;;5073287;28;20040;-56
2023/10/24 11:07:25;;;;;;;6.25;2.60;;;12.30;99.90;;;;;;5073337;28;20054;-58
2023/10/24 11:09:51;;;;;;;6.50;1.85;;;12.30;99.90;;;;;;5073103;28;20044;-60
2023/10/24 11:12:21;;;;;;;5.57;1.92;;;12.30;99.90;;;;;;5073565;28;20044;-60
2023/10/24 11:14:48;;;;;;;6.15;2.00;;;12.30;99.90;;;;;;5073451;28;20488;-58
2023/10/24 11:17:15;;;;;;;6.30;1.90;;;12.30;99.90;;;;;;5073283;28;20428;-58
2023/10/24 11:19:42;;;;;;;4.97;1.70;;;12.20;99.90;;;;;;5072911;28;20037;-60
2023/10/24 11:22:09;;;;;;;4.20;1.83;;;12.20;99.90;;;;;;5073108;28;20128;-56
2023/10/24 11:24:36;;;;;;;8.45;2.10;;;12.20;99.90;;;;;;5073284;28;20041;-60
2023/10/24 11:27:04;;;;;;;5.82;1.85;;;12.20;99.90;;;;;;5073252;28;20471;-58
2023/10/24 11:29:31;;;;;;;6.70;2.00;;;12.10;99.90;;;;;;5073019;28;20348;-59
2023/10/24 11:31:58;;;;;;;7.93;2.00;;;12.10;99.90;;;;;;5071539;28;20049;-60
2023/10/24 11:34:25;;;;;;;5.47;2.00;;;12.20;99.90;;;;;;5071865;28;20040;-58
2023/10/24 11:36:53;;;;;;;6.40;2.17;;;12.30;99.90;;;;;;5072828;28;20036;-58
2023/10/24 11:39:20;;;;;;;5.28;2.38;;;12.40;99.90;;;;;;5072812;28;20041;-60
2023/10/24 11:41:47;;;;;;;6.68;2.20;;;12.40;99.90;;;;;;5079866;28;20044;-58
2023/10/24 11:44:15;;;;;;;5.18;2.03;;;12.40;99.90;;;;;;5079939;28;20494;-57
2023/10/24 11:46:42;;;;;;;6.45;1.90;;;12.40;99.90;;;;;;5079899;28;20048;-57
2023/10/24 11:49:09;;;;;;;6.25;1.75;;;12.50;99.90;;;;;;5080130;28;20043;-57
2023/10/24 11:51:38;;;;;;;7.15;2.10;;;12.50;99.90;;;;;;5079465;28;20036;-56
2023/10/24 11:54:05;;;;;;;6.78;1.80;;;12.60;99.90;;;;;;5079877;28;20043;-59
2023/10/24 11:56:32;;;;;;;6.82;2.20;;;12.60;99.90;;;;;;5078971;28;20036;-58
2023/10/24 11:58:59;;;;;;;4.85;1.83;;;12.70;99.90;;;;;;5079468;28;20468;-58
2023/10/24 12:01:28;;;;;;;6.43;1.77;;;12.70;99.90;;;;;;5079014;28;20039;-56
2023/10/24 12:03:58;;;;;;;8.07;1.65;;;12.80;99.90;;;;;;5073752;28;20123;-56
2023/10/24 12:06:26;;;;;;;6.45;1.77;;;12.80;99.90;;;;;;5079638;28;20479;-58
2023/10/24 12:08:53;;;;;;;5.63;1.58;;;12.80;99.90;;;;;;5080447;28;20090;-59
2023/10/24 12:11:20;;;;;;;7.90;2.03;;;12.80;99.90;;;;;;5079530;28;20064;-59
2023/10/24 12:13:47;;;;;;;6.70;1.70;;;12.90;99.90;;;;;;5079229;28;20033;-61
2023/10/24 12:16:14;;;;;;;6.22;1.70;;;12.90;99.90;;;;;;5083497;28;20040;-61
2023/10/24 12:18:41;;;;;;;5.90;1.85;;;12.90;99.90;;;;;;5079881;28;20037;-60
2023/10/24 12:21:07;;;;;;;5.88;1.60;;;12.90;99.90;;;;;;5075359;28;20033;-60
2023/10/24 12:23:35;;;;;;;7.57;1.95;;;12.90;99.90;;;;;;5077307;28;20124;-55
2023/10/24 12:26:04;;;;;;;7.97;1.60;;;12.90;99.90;;;;;;5072894;28;20556;-55
2023/10/24 12:28:32;;;;;;;4.45;1.25;;;13.00;99.90;;;;;;5076360;28;20119;-57
2023/10/24 12:31:00;;;;;;;6.47;1.65;;;13.00;99.90;;;;;;5079444;28;20045;-59
2023/10/24 12:33:28;;;;;;;8.40;1.92;;;13.00;99.90;;;;;;5077671;28;20052;-55
2023/10/24 12:35:58;;;;;;;5.13;1.40;;;13.00;99.90;;;;;;5076891;28;20032;-55